sensor_id;sensor_type;location;lat;lon;timestamp;temperature;humidity
9837;DHT22;4957;51.412;6.724;2023-04-23T00:01:59;13.60;93.40
9837;DHT22;4957;51.412;6.724;2023-04-23T00:04:25;13.60;93.50
9837;DHT22;4957;51.412;6.724;2023-04-23T00:06:54;13.50;93.50
9837;DHT22;4957;51.412;6.724;2023-04-23T00:09:21;13.50;93.60
9837;DHT22;4957;51.412;6.724;2023-04-23T00:11:47;13.50;93.60
9837;DHT22;4957;51.412;6.724;2023-04-23T00:14:13;13.40;93.60
9837;DHT22;4957;51.412;6.724;2023-04-23T00:16:39;13.40;93.60
9837;DHT22;4957;51.412;6.724;2023-04-23T00:19:05;13.40;93.70
9837;DHT22;4957;51.412;6.724;2023-04-23T00:21:31;13.40;93.80
9837;DHT22;4957;51.412;6.724;2023-04-23T00:23:57;13.30;93.80
9837;DHT22;4957;51.412;6.724;2023-04-23T00:26:22;13.30;93.80
9837;DHT22;4957;51.412;6.724;2023-04-23T00:28:48;13.30;93.90
9837;DHT22;4957;51.412;6.724;2023-04-23T00:31:14;13.30;93.90
9837;DHT22;4957;51.412;6.724;2023-04-23T00:33:39;13.20;94.00
9837;DHT22;4957;51.412;6.724;2023-04-23T00:36:05;13.20;94.10
9837;DHT22;4957;51.412;6.724;2023-04-23T00:38:31;13.20;94.10
9837;DHT22;4957;51.412;6.724;2023-04-23T00:40:57;13.10;94.10
9837;DHT22;4957;51.412;6.724;2023-04-23T00:43:23;13.20;94.20
9837;DHT22;4957;51.412;6.724;2023-04-23T00:45:49;13.10;94.20
9837;DHT22;4957;51.412;6.724;2023-04-23T00:48:15;13.10;94.20
9837;DHT22;4957;51.412;6.724;2023-04-23T00:50:41;13.10;94.30
9837;DHT22;4957;51.412;6.724;2023-04-23T00:53:07;13.10;94.30
9837;DHT22;4957;51.412;6.724;2023-04-23T00:55:33;13.10;94.30
9837;DHT22;4957;51.412;6.724;2023-04-23T00:57:59;13.10;94.40
9837;DHT22;4957;51.412;6.724;2023-04-23T01:00:25;13.00;94.40
9837;DHT22;4957;51.412;6.724;2023-04-23T01:02:52;13.00;94.40
9837;DHT22;4957;51.412;6.724;2023-04-23T01:05:19;13.00;94.40
9837;DHT22;4957;51.412;6.724;2023-04-23T01:07:46;13.00;94.40
9837;DHT22;4957;51.412;6.724;2023-04-23T01:10:12;12.90;94.50
9837;DHT22;4957;51.412;6.724;2023-04-23T01:12:38;12.90;94.60
9837;DHT22;4957;51.412;6.724;2023-04-23T01:15:04;12.90;94.60
9837;DHT22;4957;51.412;6.724;2023-04-23T01:17:30;12.90;94.60
9837;DHT22;4957;51.412;6.724;2023-04-23T01:19:56;12.80;94.60
9837;DHT22;4957;51.412;6.724;2023-04-23T01:22:22;12.80;94.70
9837;DHT22;4957;51.412;6.724;2023-04-23T01:24:48;12.80;94.80
9837;DHT22;4957;51.412;6.724;2023-04-23T01:27:15;12.80;94.80
9837;DHT22;4957;51.412;6.724;2023-04-23T01:29:41;12.80;94.80
9837;DHT22;4957;51.412;6.724;2023-04-23T01:32:07;12.80;94.70
9837;DHT22;4957;51.412;6.724;2023-04-23T01:34:34;12.80;94.80
9837;DHT22;4957;51.412;6.724;2023-04-23T01:37:02;12.70;94.70
9837;DHT22;4957;51.412;6.724;2023-04-23T01:39:28;12.80;94.80
9837;DHT22;4957;51.412;6.724;2023-04-23T01:41:54;12.80;94.70
9837;DHT22;4957;51.412;6.724;2023-04-23T01:44:19;12.80;94.60
9837;DHT22;4957;51.412;6.724;2023-04-23T01:46:46;12.70;94.50
9837;DHT22;4957;51.412;6.724;2023-04-23T01:49:12;12.70;94.60
9837;DHT22;4957;51.412;6.724;2023-04-23T01:51:38;12.60;94.60
9837;DHT22;4957;51.412;6.724;2023-04-23T01:54:04;12.60;94.60
9837;DHT22;4957;51.412;6.724;2023-04-23T01:56:29;12.50;94.60
9837;DHT22;4957;51.412;6.724;2023-04-23T01:58:57;12.50;94.60
9837;DHT22;4957;51.412;6.724;2023-04-23T02:01:23;12.40;94.50
9837;DHT22;4957;51.412;6.724;2023-04-23T02:03:49;12.40;94.60
9837;DHT22;4957;51.412;6.724;2023-04-23T02:06:15;12.30;94.50
9837;DHT22;4957;51.412;6.724;2023-04-23T02:08:41;12.30;94.50
9837;DHT22;4957;51.412;6.724;2023-04-23T02:11:07;12.30;94.50
9837;DHT22;4957;51.412;6.724;2023-04-23T02:13:33;12.20;94.50
9837;DHT22;4957;51.412;6.724;2023-04-23T02:15:59;12.20;94.50
9837;DHT22;4957;51.412;6.724;2023-04-23T02:18:25;12.20;94.50
9837;DHT22;4957;51.412;6.724;2023-04-23T02:20:51;12.20;94.50
9837;DHT22;4957;51.412;6.724;2023-04-23T02:23:16;12.10;94.50
9837;DHT22;4957;51.412;6.724;2023-04-23T02:25:42;12.10;94.50
9837;DHT22;4957;51.412;6.724;2023-04-23T02:28:08;12.10;94.40
9837;DHT22;4957;51.412;6.724;2023-04-23T02:30:37;12.10;94.40
9837;DHT22;4957;51.412;6.724;2023-04-23T02:33:04;12.00;94.30
9837;DHT22;4957;51.412;6.724;2023-04-23T02:35:30;12.00;94.30
9837;DHT22;4957;51.412;6.724;2023-04-23T02:37:56;11.90;94.20
9837;DHT22;4957;51.412;6.724;2023-04-23T02:40:21;11.90;94.20
9837;DHT22;4957;51.412;6.724;2023-04-23T02:42:48;11.80;94.30
9837;DHT22;4957;51.412;6.724;2023-04-23T02:45:14;11.80;94.30
9837;DHT22;4957;51.412;6.724;2023-04-23T02:47:39;11.80;94.30
9837;DHT22;4957;51.412;6.724;2023-04-23T02:50:06;11.80;94.30
9837;DHT22;4957;51.412;6.724;2023-04-23T02:52:32;11.80;94.20
9837;DHT22;4957;51.412;6.724;2023-04-23T02:54:59;11.80;94.30
9837;DHT22;4957;51.412;6.724;2023-04-23T02:57:27;11.80;94.30
9837;DHT22;4957;51.412;6.724;2023-04-23T02:59:53;11.70;94.40
9837;DHT22;4957;51.412;6.724;2023-04-23T03:02:18;11.70;94.50
9837;DHT22;4957;51.412;6.724;2023-04-23T03:04:44;11.70;94.60
9837;DHT22;4957;51.412;6.724;2023-04-23T03:07:10;11.70;94.70
9837;DHT22;4957;51.412;6.724;2023-04-23T03:09:38;11.60;94.70
9837;DHT22;4957;51.412;6.724;2023-04-23T03:12:04;11.60;94.90
9837;DHT22;4957;51.412;6.724;2023-04-23T03:14:29;11.60;95.10
9837;DHT22;4957;51.412;6.724;2023-04-23T03:16:55;11.60;95.20
9837;DHT22;4957;51.412;6.724;2023-04-23T03:19:21;11.60;95.20
9837;DHT22;4957;51.412;6.724;2023-04-23T03:21:46;11.60;95.40
9837;DHT22;4957;51.412;6.724;2023-04-23T03:24:13;11.60;95.40
9837;DHT22;4957;51.412;6.724;2023-04-23T03:26:39;11.60;95.50
9837;DHT22;4957;51.412;6.724;2023-04-23T03:29:05;11.60;95.50
9837;DHT22;4957;51.412;6.724;2023-04-23T03:31:33;11.60;95.60
9837;DHT22;4957;51.412;6.724;2023-04-23T03:33:58;11.50;95.60
9837;DHT22;4957;51.412;6.724;2023-04-23T03:36:24;11.50;95.70
9837;DHT22;4957;51.412;6.724;2023-04-23T03:38:50;11.50;95.70
9837;DHT22;4957;51.412;6.724;2023-04-23T03:41:15;11.50;95.60
9837;DHT22;4957;51.412;6.724;2023-04-23T03:43:42;11.40;95.70
9837;DHT22;4957;51.412;6.724;2023-04-23T03:46:07;11.40;95.80
9837;DHT22;4957;51.412;6.724;2023-04-23T03:48:33;11.40;95.70
9837;DHT22;4957;51.412;6.724;2023-04-23T03:50:59;11.40;95.70
9837;DHT22;4957;51.412;6.724;2023-04-23T03:53:25;11.30;95.70
9837;DHT22;4957;51.412;6.724;2023-04-23T03:55:50;11.30;95.90
9837;DHT22;4957;51.412;6.724;2023-04-23T03:58:16;11.30;95.90
9837;DHT22;4957;51.412;6.724;2023-04-23T04:00:42;11.30;95.90
9837;DHT22;4957;51.412;6.724;2023-04-23T04:03:08;11.30;96.00
9837;DHT22;4957;51.412;6.724;2023-04-23T04:05:34;11.30;96.00
9837;DHT22;4957;51.412;6.724;2023-04-23T04:08:00;11.30;96.10
9837;DHT22;4957;51.412;6.724;2023-04-23T04:10:26;11.30;96.00
9837;DHT22;4957;51.412;6.724;2023-04-23T04:12:52;11.30;96.00
9837;DHT22;4957;51.412;6.724;2023-04-23T04:15:19;11.30;96.00
9837;DHT22;4957;51.412;6.724;2023-04-23T04:17:46;11.20;95.90
9837;DHT22;4957;51.412;6.724;2023-04-23T04:20:12;11.20;96.10
9837;DHT22;4957;51.412;6.724;2023-04-23T04:22:37;11.20;96.10
9837;DHT22;4957;51.412;6.724;2023-04-23T04:25:04;11.20;96.10
9837;DHT22;4957;51.412;6.724;2023-04-23T04:27:30;11.20;96.10
9837;DHT22;4957;51.412;6.724;2023-04-23T04:29:58;11.20;96.10
9837;DHT22;4957;51.412;6.724;2023-04-23T04:32:26;11.20;96.10
9837;DHT22;4957;51.412;6.724;2023-04-23T04:34:52;11.10;96.00
9837;DHT22;4957;51.412;6.724;2023-04-23T04:37:18;11.10;96.10
9837;DHT22;4957;51.412;6.724;2023-04-23T04:39:45;11.10;96.10
9837;DHT22;4957;51.412;6.724;2023-04-23T04:42:11;11.10;96.20
9837;DHT22;4957;51.412;6.724;2023-04-23T04:44:37;11.10;96.20
9837;DHT22;4957;51.412;6.724;2023-04-23T04:47:03;11.10;96.20
9837;DHT22;4957;51.412;6.724;2023-04-23T04:49:29;11.00;96.30
9837;DHT22;4957;51.412;6.724;2023-04-23T04:51:55;11.00;96.40
9837;DHT22;4957;51.412;6.724;2023-04-23T04:54:21;11.00;96.40
9837;DHT22;4957;51.412;6.724;2023-04-23T04:56:46;11.00;96.60
9837;DHT22;4957;51.412;6.724;2023-04-23T04:59:12;10.90;96.70
9837;DHT22;4957;51.412;6.724;2023-04-23T05:01:38;10.90;96.80
9837;DHT22;4957;51.412;6.724;2023-04-23T05:04:04;11.00;97.10
9837;DHT22;4957;51.412;6.724;2023-04-23T05:06:29;11.00;97.30
9837;DHT22;4957;51.412;6.724;2023-04-23T05:08:56;11.00;97.60
9837;DHT22;4957;51.412;6.724;2023-04-23T05:11:22;11.00;97.70
9837;DHT22;4957;51.412;6.724;2023-04-23T05:13:48;11.10;98.00
9837;DHT22;4957;51.412;6.724;2023-04-23T05:16:14;11.10;98.20
9837;DHT22;4957;51.412;6.724;2023-04-23T05:18:40;11.20;98.50
9837;DHT22;4957;51.412;6.724;2023-04-23T05:21:07;11.20;98.80
9837;DHT22;4957;51.412;6.724;2023-04-23T05:23:33;11.30;98.90
9837;DHT22;4957;51.412;6.724;2023-04-23T05:25:59;11.30;99.20
9837;DHT22;4957;51.412;6.724;2023-04-23T05:28:28;11.40;99.50
9837;DHT22;4957;51.412;6.724;2023-04-23T05:30:55;11.40;99.60
9837;DHT22;4957;51.412;6.724;2023-04-23T05:33:20;11.40;99.80
9837;DHT22;4957;51.412;6.724;2023-04-23T05:35:46;11.50;99.90
9837;DHT22;4957;51.412;6.724;2023-04-23T05:38:12;11.50;99.90
9837;DHT22;4957;51.412;6.724;2023-04-23T05:40:38;11.60;99.90
9837;DHT22;4957;51.412;6.724;2023-04-23T05:43:04;11.60;99.90
9837;DHT22;4957;51.412;6.724;2023-04-23T05:45:30;11.60;99.90
9837;DHT22;4957;51.412;6.724;2023-04-23T05:47:56;11.60;99.90
9837;DHT22;4957;51.412;6.724;2023-04-23T05:50:22;11.70;99.90
9837;DHT22;4957;51.412;6.724;2023-04-23T05:52:48;11.70;99.90
9837;DHT22;4957;51.412;6.724;2023-04-23T05:55:13;11.70;99.90
9837;DHT22;4957;51.412;6.724;2023-04-23T05:57:43;11.70;99.90
9837;DHT22;4957;51.412;6.724;2023-04-23T06:00:08;11.70;99.90
9837;DHT22;4957;51.412;6.724;2023-04-23T06:02:34;11.80;99.90
9837;DHT22;4957;51.412;6.724;2023-04-23T06:05:00;11.80;99.90
9837;DHT22;4957;51.412;6.724;2023-04-23T06:07:26;11.80;99.90
9837;DHT22;4957;51.412;6.724;2023-04-23T06:09:51;11.80;99.90
9837;DHT22;4957;51.412;6.724;2023-04-23T06:12:17;11.90;99.90
9837;DHT22;4957;51.412;6.724;2023-04-23T06:14:43;11.90;99.90
9837;DHT22;4957;51.412;6.724;2023-04-23T06:17:09;11.90;99.90
9837;DHT22;4957;51.412;6.724;2023-04-23T06:19:35;11.90;99.90
9837;DHT22;4957;51.412;6.724;2023-04-23T06:22:00;12.00;99.90
9837;DHT22;4957;51.412;6.724;2023-04-23T06:24:26;12.00;99.90
9837;DHT22;4957;51.412;6.724;2023-04-23T06:26:52;12.00;99.90
9837;DHT22;4957;51.412;6.724;2023-04-23T06:29:17;12.10;99.90
9837;DHT22;4957;51.412;6.724;2023-04-23T06:31:43;12.10;99.90
9837;DHT22;4957;51.412;6.724;2023-04-23T06:34:09;12.10;99.90
9837;DHT22;4957;51.412;6.724;2023-04-23T06:36:34;12.20;99.90
9837;DHT22;4957;51.412;6.724;2023-04-23T06:39:00;12.20;99.90
9837;DHT22;4957;51.412;6.724;2023-04-23T06:41:26;12.20;99.90
9837;DHT22;4957;51.412;6.724;2023-04-23T06:43:52;12.20;99.90
9837;DHT22;4957;51.412;6.724;2023-04-23T06:46:18;12.30;99.90
9837;DHT22;4957;51.412;6.724;2023-04-23T06:48:43;12.30;99.90
9837;DHT22;4957;51.412;6.724;2023-04-23T06:51:09;12.40;99.90
9837;DHT22;4957;51.412;6.724;2023-04-23T06:53:35;12.40;99.90
9837;DHT22;4957;51.412;6.724;2023-04-23T06:56:01;12.40;99.90
9837;DHT22;4957;51.412;6.724;2023-04-23T06:58:27;12.50;99.90
9837;DHT22;4957;51.412;6.724;2023-04-23T07:00:57;12.50;99.90
9837;DHT22;4957;51.412;6.724;2023-04-23T07:03:29;12.60;99.90
9837;DHT22;4957;51.412;6.724;2023-04-23T07:05:56;12.60;99.90
9837;DHT22;4957;51.412;6.724;2023-04-23T07:08:22;12.70;99.90
9837;DHT22;4957;51.412;6.724;2023-04-23T07:10:47;12.70;99.90
9837;DHT22;4957;51.412;6.724;2023-04-23T07:13:14;12.80;99.90
9837;DHT22;4957;51.412;6.724;2023-04-23T07:15:39;12.90;99.90
9837;DHT22;4957;51.412;6.724;2023-04-23T07:18:06;13.00;99.90
9837;DHT22;4957;51.412;6.724;2023-04-23T07:20:32;13.00;99.90
9837;DHT22;4957;51.412;6.724;2023-04-23T07:22:58;13.20;99.90
9837;DHT22;4957;51.412;6.724;2023-04-23T07:25:25;13.30;99.90
9837;DHT22;4957;51.412;6.724;2023-04-23T07:27:52;13.40;99.90
9837;DHT22;4957;51.412;6.724;2023-04-23T07:30:19;13.60;99.90
9837;DHT22;4957;51.412;6.724;2023-04-23T07:32:45;13.70;99.90
9837;DHT22;4957;51.412;6.724;2023-04-23T07:35:11;13.90;99.90
9837;DHT22;4957;51.412;6.724;2023-04-23T07:37:37;14.00;99.90
9837;DHT22;4957;51.412;6.724;2023-04-23T07:40:03;14.20;99.90
9837;DHT22;4957;51.412;6.724;2023-04-23T07:42:30;14.40;99.90
9837;DHT22;4957;51.412;6.724;2023-04-23T07:44:56;14.50;99.90
9837;DHT22;4957;51.412;6.724;2023-04-23T07:47:22;14.70;99.90
9837;DHT22;4957;51.412;6.724;2023-04-23T07:49:48;14.80;99.90
9837;DHT22;4957;51.412;6.724;2023-04-23T07:52:14;14.90;99.90
9837;DHT22;4957;51.412;6.724;2023-04-23T07:54:40;15.00;99.90
9837;DHT22;4957;51.412;6.724;2023-04-23T07:57:06;15.20;99.90
9837;DHT22;4957;51.412;6.724;2023-04-23T07:59:32;15.30;99.90
9837;DHT22;4957;51.412;6.724;2023-04-23T08:01:57;15.50;99.90
9837;DHT22;4957;51.412;6.724;2023-04-23T08:04:23;15.70;99.90
9837;DHT22;4957;51.412;6.724;2023-04-23T08:06:49;15.90;99.90
9837;DHT22;4957;51.412;6.724;2023-04-23T08:09:15;16.10;99.90
9837;DHT22;4957;51.412;6.724;2023-04-23T08:11:40;16.10;99.90
9837;DHT22;4957;51.412;6.724;2023-04-23T08:14:06;16.30;99.90
9837;DHT22;4957;51.412;6.724;2023-04-23T08:16:32;16.40;99.90
9837;DHT22;4957;51.412;6.724;2023-04-23T08:18:58;16.50;99.90
9837;DHT22;4957;51.412;6.724;2023-04-23T08:21:24;16.70;99.90
9837;DHT22;4957;51.412;6.724;2023-04-23T08:23:51;16.90;99.90
9837;DHT22;4957;51.412;6.724;2023-04-23T08:26:17;17.10;99.90
9837;DHT22;4957;51.412;6.724;2023-04-23T08:28:44;17.20;99.90
9837;DHT22;4957;51.412;6.724;2023-04-23T08:31:11;17.30;99.90
9837;DHT22;4957;51.412;6.724;2023-04-23T08:33:36;17.50;99.90
9837;DHT22;4957;51.412;6.724;2023-04-23T08:36:02;17.60;99.90
9837;DHT22;4957;51.412;6.724;2023-04-23T08:38:28;17.80;99.90
9837;DHT22;4957;51.412;6.724;2023-04-23T08:40:56;18.00;99.90
9837;DHT22;4957;51.412;6.724;2023-04-23T08:43:33;18.10;99.90
9837;DHT22;4957;51.412;6.724;2023-04-23T08:46:03;18.30;99.90
9837;DHT22;4957;51.412;6.724;2023-04-23T08:48:29;18.50;99.90
9837;DHT22;4957;51.412;6.724;2023-04-23T08:50:58;18.60;99.90
9837;DHT22;4957;51.412;6.724;2023-04-23T08:53:26;18.60;99.90
9837;DHT22;4957;51.412;6.724;2023-04-23T08:55:54;18.60;99.90
9837;DHT22;4957;51.412;6.724;2023-04-23T08:58:21;18.70;99.90
9837;DHT22;4957;51.412;6.724;2023-04-23T09:00:48;18.60;99.90
9837;DHT22;4957;51.412;6.724;2023-04-23T09:03:15;18.60;99.90
9837;DHT22;4957;51.412;6.724;2023-04-23T09:05:43;18.50;99.90
9837;DHT22;4957;51.412;6.724;2023-04-23T09:08:09;18.50;99.90
9837;DHT22;4957;51.412;6.724;2023-04-23T09:10:36;18.40;99.50
9837;DHT22;4957;51.412;6.724;2023-04-23T09:13:05;18.50;99.40
9837;DHT22;4957;51.412;6.724;2023-04-23T09:15:30;18.50;98.50
9837;DHT22;4957;51.412;6.724;2023-04-23T09:17:57;18.50;98.10
9837;DHT22;4957;51.412;6.724;2023-04-23T09:20:24;18.40;97.80
9837;DHT22;4957;51.412;6.724;2023-04-23T09:22:51;18.40;97.70
9837;DHT22;4957;51.412;6.724;2023-04-23T09:25:20;18.30;97.40
9837;DHT22;4957;51.412;6.724;2023-04-23T09:27:48;18.40;97.30
9837;DHT22;4957;51.412;6.724;2023-04-23T09:30:15;18.40;97.00
9837;DHT22;4957;51.412;6.724;2023-04-23T09:32:42;18.40;96.90
9837;DHT22;4957;51.412;6.724;2023-04-23T09:35:12;18.40;96.90
9837;DHT22;4957;51.412;6.724;2023-04-23T09:37:41;18.40;96.90
9837;DHT22;4957;51.412;6.724;2023-04-23T09:40:07;18.50;96.50
9837;DHT22;4957;51.412;6.724;2023-04-23T09:42:34;18.60;96.40
9837;DHT22;4957;51.412;6.724;2023-04-23T09:45:03;18.70;96.20
9837;DHT22;4957;51.412;6.724;2023-04-23T09:47:34;18.80;95.80
9837;DHT22;4957;51.412;6.724;2023-04-23T09:50:02;18.90;95.30
9837;DHT22;4957;51.412;6.724;2023-04-23T09:52:33;18.90;94.70
9837;DHT22;4957;51.412;6.724;2023-04-23T09:55:03;19.00;94.40
9837;DHT22;4957;51.412;6.724;2023-04-23T10:00:13;19.30;93.70
9837;DHT22;4957;51.412;6.724;2023-04-23T10:02:45;19.30;93.30
9837;DHT22;4957;51.412;6.724;2023-04-23T10:05:16;19.50;93.80
9837;DHT22;4957;51.412;6.724;2023-04-23T10:07:44;19.60;93.50
9837;DHT22;4957;51.412;6.724;2023-04-23T10:10:11;19.70;93.20
9837;DHT22;4957;51.412;6.724;2023-04-23T10:12:37;19.80;92.80
9837;DHT22;4957;51.412;6.724;2023-04-23T10:15:04;19.90;92.20
9837;DHT22;4957;51.412;6.724;2023-04-23T10:17:33;20.10;91.70
9837;DHT22;4957;51.412;6.724;2023-04-23T10:19:59;20.30;91.60
9837;DHT22;4957;51.412;6.724;2023-04-23T10:22:28;20.40;91.50
9837;DHT22;4957;51.412;6.724;2023-04-23T10:24:56;20.70;90.90
9837;DHT22;4957;51.412;6.724;2023-04-23T10:27:30;20.90;90.30
9837;DHT22;4957;51.412;6.724;2023-04-23T10:29:59;21.00;89.30
9837;DHT22;4957;51.412;6.724;2023-04-23T10:32:26;21.10;88.30
9837;DHT22;4957;51.412;6.724;2023-04-23T10:34:52;21.10;88.20
9837;DHT22;4957;51.412;6.724;2023-04-23T10:37:19;21.20;88.60
9837;DHT22;4957;51.412;6.724;2023-04-23T10:39:54;21.20;87.10
9837;DHT22;4957;51.412;6.724;2023-04-23T10:42:21;21.30;86.80
9837;DHT22;4957;51.412;6.724;2023-04-23T10:44:47;21.40;86.30
9837;DHT22;4957;51.412;6.724;2023-04-23T10:47:14;21.40;85.80
9837;DHT22;4957;51.412;6.724;2023-04-23T10:49:42;21.50;85.40
9837;DHT22;4957;51.412;6.724;2023-04-23T10:52:10;21.50;84.30
9837;DHT22;4957;51.412;6.724;2023-04-23T10:54:40;21.60;83.40
9837;DHT22;4957;51.412;6.724;2023-04-23T10:57:07;21.60;82.80
9837;DHT22;4957;51.412;6.724;2023-04-23T10:59:34;21.60;82.10
9837;DHT22;4957;51.412;6.724;2023-04-23T11:02:07;21.50;81.50
9837;DHT22;4957;51.412;6.724;2023-04-23T11:04:34;21.60;81.00
9837;DHT22;4957;51.412;6.724;2023-04-23T11:07:09;21.60;81.00
9837;DHT22;4957;51.412;6.724;2023-04-23T11:09:47;21.70;79.30
9837;DHT22;4957;51.412;6.724;2023-04-23T11:14:49;21.80;79.40
9837;DHT22;4957;51.412;6.724;2023-04-23T11:17:22;21.80;78.90
9837;DHT22;4957;51.412;6.724;2023-04-23T11:25:01;22.00;76.50
9837;DHT22;4957;51.412;6.724;2023-04-23T11:27:29;22.00;75.80
9837;DHT22;4957;51.412;6.724;2023-04-23T11:29:56;22.10;74.70
9837;DHT22;4957;51.412;6.724;2023-04-23T11:32:22;22.20;74.80
9837;DHT22;4957;51.412;6.724;2023-04-23T11:34:49;22.30;74.70
9837;DHT22;4957;51.412;6.724;2023-04-23T11:37:18;22.40;74.10
9837;DHT22;4957;51.412;6.724;2023-04-23T11:39:45;22.40;73.10
9837;DHT22;4957;51.412;6.724;2023-04-23T11:42:12;22.50;71.60
9837;DHT22;4957;51.412;6.724;2023-04-23T11:44:39;22.60;70.80
9837;DHT22;4957;51.412;6.724;2023-04-23T11:47:10;22.70;69.40
9837;DHT22;4957;51.412;6.724;2023-04-23T11:49:37;22.70;68.00
9837;DHT22;4957;51.412;6.724;2023-04-23T11:52:03;22.80;67.80
9837;DHT22;4957;51.412;6.724;2023-04-23T11:54:29;22.80;67.40
9837;DHT22;4957;51.412;6.724;2023-04-23T11:56:55;22.80;66.80
9837;DHT22;4957;51.412;6.724;2023-04-23T11:59:22;22.80;65.50
9837;DHT22;4957;51.412;6.724;2023-04-23T12:01:58;22.80;65.40
9837;DHT22;4957;51.412;6.724;2023-04-23T12:04:27;22.80;65.10
9837;DHT22;4957;51.412;6.724;2023-04-23T12:06:54;22.80;65.90
9837;DHT22;4957;51.412;6.724;2023-04-23T12:09:25;22.80;65.60
9837;DHT22;4957;51.412;6.724;2023-04-23T12:11:51;22.90;64.50
9837;DHT22;4957;51.412;6.724;2023-04-23T12:14:19;22.90;65.60
9837;DHT22;4957;51.412;6.724;2023-04-23T12:16:47;22.90;63.30
9837;DHT22;4957;51.412;6.724;2023-04-23T12:19:29;23.00;63.40
9837;DHT22;4957;51.412;6.724;2023-04-23T12:24:23;23.10;61.90
9837;DHT22;4957;51.412;6.724;2023-04-23T12:26:52;23.10;61.40
9837;DHT22;4957;51.412;6.724;2023-04-23T12:29:20;23.10;61.20
9837;DHT22;4957;51.412;6.724;2023-04-23T12:31:46;23.20;61.00
9837;DHT22;4957;51.412;6.724;2023-04-23T12:34:13;23.20;60.90
9837;DHT22;4957;51.412;6.724;2023-04-23T12:36:45;23.30;59.90
9837;DHT22;4957;51.412;6.724;2023-04-23T12:39:30;23.50;59.00
9837;DHT22;4957;51.412;6.724;2023-04-23T12:42:01;23.60;58.90
9837;DHT22;4957;51.412;6.724;2023-04-23T12:44:30;23.70;58.50
9837;DHT22;4957;51.412;6.724;2023-04-23T12:46:57;23.70;58.30
9837;DHT22;4957;51.412;6.724;2023-04-23T12:49:24;23.70;58.40
9837;DHT22;4957;51.412;6.724;2023-04-23T12:51:55;23.70;58.60
9837;DHT22;4957;51.412;6.724;2023-04-23T12:54:28;23.80;58.40
9837;DHT22;4957;51.412;6.724;2023-04-23T12:56:54;23.80;57.80
9837;DHT22;4957;51.412;6.724;2023-04-23T12:59:20;23.90;58.40
9837;DHT22;4957;51.412;6.724;2023-04-23T13:01:46;24.00;57.80
9837;DHT22;4957;51.412;6.724;2023-04-23T13:04:12;24.00;57.60
9837;DHT22;4957;51.412;6.724;2023-04-23T13:06:39;23.90;56.60
9837;DHT22;4957;51.412;6.724;2023-04-23T13:09:04;24.00;55.60
9837;DHT22;4957;51.412;6.724;2023-04-23T13:11:31;24.00;55.00
9837;DHT22;4957;51.412;6.724;2023-04-23T13:13:57;24.00;54.40
9837;DHT22;4957;51.412;6.724;2023-04-23T13:16:22;24.10;54.40
9837;DHT22;4957;51.412;6.724;2023-04-23T13:18:48;24.00;53.70
9837;DHT22;4957;51.412;6.724;2023-04-23T13:21:16;24.00;53.90
9837;DHT22;4957;51.412;6.724;2023-04-23T13:23:42;24.00;53.30
9837;DHT22;4957;51.412;6.724;2023-04-23T13:26:08;24.10;53.10
9837;DHT22;4957;51.412;6.724;2023-04-23T13:28:34;24.10;53.30
9837;DHT22;4957;51.412;6.724;2023-04-23T13:31:01;24.10;52.40
9837;DHT22;4957;51.412;6.724;2023-04-23T13:33:27;24.10;52.20
9837;DHT22;4957;51.412;6.724;2023-04-23T13:35:53;24.10;52.10
9837;DHT22;4957;51.412;6.724;2023-04-23T13:38:21;24.10;51.20
9837;DHT22;4957;51.412;6.724;2023-04-23T13:40:47;24.10;51.40
9837;DHT22;4957;51.412;6.724;2023-04-23T13:43:13;24.10;50.60
9837;DHT22;4957;51.412;6.724;2023-04-23T13:45:39;24.10;50.50
9837;DHT22;4957;51.412;6.724;2023-04-23T13:48:05;24.10;50.70
9837;DHT22;4957;51.412;6.724;2023-04-23T13:50:32;24.00;50.60
9837;DHT22;4957;51.412;6.724;2023-04-23T13:52:58;24.00;50.10
9837;DHT22;4957;51.412;6.724;2023-04-23T13:55:25;24.10;50.10
9837;DHT22;4957;51.412;6.724;2023-04-23T13:57:50;24.10;49.50
9837;DHT22;4957;51.412;6.724;2023-04-23T14:00:17;24.10;49.40
9837;DHT22;4957;51.412;6.724;2023-04-23T14:02:42;24.10;49.40
9837;DHT22;4957;51.412;6.724;2023-04-23T14:05:08;24.20;48.80
9837;DHT22;4957;51.412;6.724;2023-04-23T14:07:34;24.20;48.90
9837;DHT22;4957;51.412;6.724;2023-04-23T14:10:00;24.20;48.40
9837;DHT22;4957;51.412;6.724;2023-04-23T14:12:26;24.20;48.60
9837;DHT22;4957;51.412;6.724;2023-04-23T14:14:54;24.10;48.50
9837;DHT22;4957;51.412;6.724;2023-04-23T14:17:20;24.10;48.60
9837;DHT22;4957;51.412;6.724;2023-04-23T14:19:46;24.20;48.50
9837;DHT22;4957;51.412;6.724;2023-04-23T14:22:12;24.10;47.70
9837;DHT22;4957;51.412;6.724;2023-04-23T14:24:45;24.10;47.80
9837;DHT22;4957;51.412;6.724;2023-04-23T14:27:14;24.10;47.10
9837;DHT22;4957;51.412;6.724;2023-04-23T14:29:44;24.10;47.70
9837;DHT22;4957;51.412;6.724;2023-04-23T14:32:11;24.10;48.30
9837;DHT22;4957;51.412;6.724;2023-04-23T14:34:37;24.00;48.30
9837;DHT22;4957;51.412;6.724;2023-04-23T14:37:03;24.00;47.70
9837;DHT22;4957;51.412;6.724;2023-04-23T14:39:28;24.00;47.30
9837;DHT22;4957;51.412;6.724;2023-04-23T14:41:55;24.00;48.10
9837;DHT22;4957;51.412;6.724;2023-04-23T14:44:21;23.90;48.40
9837;DHT22;4957;51.412;6.724;2023-04-23T14:46:53;23.80;48.00
9837;DHT22;4957;51.412;6.724;2023-04-23T14:49:20;23.80;47.60
9837;DHT22;4957;51.412;6.724;2023-04-23T14:51:47;23.70;47.50
9837;DHT22;4957;51.412;6.724;2023-04-23T14:54:15;23.70;47.70
9837;DHT22;4957;51.412;6.724;2023-04-23T14:56:41;23.60;47.30
9837;DHT22;4957;51.412;6.724;2023-04-23T14:59:07;23.50;47.70
9837;DHT22;4957;51.412;6.724;2023-04-23T15:01:33;23.50;47.70
9837;DHT22;4957;51.412;6.724;2023-04-23T15:03:59;23.40;48.50
9837;DHT22;4957;51.412;6.724;2023-04-23T15:06:25;23.40;48.00
9837;DHT22;4957;51.412;6.724;2023-04-23T15:08:51;23.30;48.20
9837;DHT22;4957;51.412;6.724;2023-04-23T15:11:17;23.30;47.10
9837;DHT22;4957;51.412;6.724;2023-04-23T15:13:48;23.30;47.00
9837;DHT22;4957;51.412;6.724;2023-04-23T15:16:27;23.20;47.00
9837;DHT22;4957;51.412;6.724;2023-04-23T15:18:56;23.10;47.30
9837;DHT22;4957;51.412;6.724;2023-04-23T15:21:22;23.10;48.20
9837;DHT22;4957;51.412;6.724;2023-04-23T15:23:48;23.00;49.10
9837;DHT22;4957;51.412;6.724;2023-04-23T15:26:13;22.90;50.50
9837;DHT22;4957;51.412;6.724;2023-04-23T15:28:39;22.80;51.80
9837;DHT22;4957;51.412;6.724;2023-04-23T15:31:05;22.60;53.40
9837;DHT22;4957;51.412;6.724;2023-04-23T15:33:30;22.50;54.20
9837;DHT22;4957;51.412;6.724;2023-04-23T15:35:56;22.30;55.00
9837;DHT22;4957;51.412;6.724;2023-04-23T15:38:22;22.10;55.60
9837;DHT22;4957;51.412;6.724;2023-04-23T15:40:47;21.90;56.50
9837;DHT22;4957;51.412;6.724;2023-04-23T15:43:15;21.70;57.50
9837;DHT22;4957;51.412;6.724;2023-04-23T15:45:41;21.50;58.10
9837;DHT22;4957;51.412;6.724;2023-04-23T15:48:07;21.30;58.80
9837;DHT22;4957;51.412;6.724;2023-04-23T15:50:34;21.20;59.50
9837;DHT22;4957;51.412;6.724;2023-04-23T15:53:00;21.00;60.50
9837;DHT22;4957;51.412;6.724;2023-04-23T15:55:27;20.90;61.90
9837;DHT22;4957;51.412;6.724;2023-04-23T15:57:53;20.70;62.70
9837;DHT22;4957;51.412;6.724;2023-04-23T16:00:19;20.60;63.70
9837;DHT22;4957;51.412;6.724;2023-04-23T16:02:45;20.50;64.30
9837;DHT22;4957;51.412;6.724;2023-04-23T16:05:11;20.40;65.00
9837;DHT22;4957;51.412;6.724;2023-04-23T16:07:37;20.20;65.80
9837;DHT22;4957;51.412;6.724;2023-04-23T16:10:04;20.10;66.60
9837;DHT22;4957;51.412;6.724;2023-04-23T16:12:30;20.00;67.70